Airfield :
LOGIN :

Register | Disclaimer

   EN    FR    IT 

 










Legend :    VFR   Marginal VFR   IFR   Intensive IFR   Very Intensive IFR
Visi :
Ceiling :
>= 8 km
>= 3000ft
5 to 8 km
1000 to 3000 ft
1500m to 5 km
500 to 1000 ft
800 to 1500m
200 to 500 ft
< 800m
< 200 ft
Symbols :   Thunderstorms  Fog  Heavy snow  Heavy precipitations  Wind > 20 kt
SIGMETs :     Misc.  Thunderstorms  Icing  Turbulence  Mountain Waves  Volcanic Ashes







- Airport Elevation : 147 ft
- IATA code : DUS


EDDL - Düsseldorf Int.

CURRENT METAR :
  • 240820Z 23016KT 9999 SCT028 20/11 Q1015 NOSIG

EXPIRED METARs :
  • 240750Z 24017KT 210V280 9999 SCT024 SCT038 18/11 Q1016 NOSIG
  • 240720Z 22015KT 9999 FEW022 BKN038 18/11 Q1016 NOSIG
  • 240650Z 23014KT 9999 FEW020 BKN038 17/11 Q1016 NOSIG
  • 240620Z 23013KT 9999 FEW018 BKN038 17/11 Q1016 NOSIG
  • 240550Z 23013KT 9999 FEW018 BKN038 16/11 Q1016 NOSIG

TAF TAF EDDL
Valid from the 24 at 06:00 until the 25 at 12:00 UTC


240500Z 2406/2512 22012KT 9999 SCT035
TEMPO 2408/2416 25015G25KT
No reported NOTAMs for that airfield.



MET'MAP, your aeronautical weather chart ! - Copyright ORBIFLY December 2007 - Disclaimer

ORBIFLY MET'MAP TEAM :

Programming & Development : Alexandra Zaïnal
Concept & Development : Baudouin d'Aumeries
Co-Development & Prog : Marc-Olivier Méhu
Technical & hardware support : Manuel Goepfert

Contact : metmap@orbifly.com




SOURCES & CREDITS :

   NOAA